Time;durP1;ratioP1;P1;durP2;ratioP2;P2;SDS_P1;SDS_P2;PMS_P1;PMS_P2;Temp;Humidity;BMP_temperature;BMP_pressure;BME280_temperature;BME280_humidity;BME280_pressure;Samples;Min_cycle;Max_cycle;Signal;HPM_P1;HPM_P2
2022/06/22 00:00:39;;;;;;;;;;;;;;;9.34;94.51;97733.66;1745347;82;20217;-83
2022/06/22 00:03:08;;;;;;;;;;;;;;;9.29;95.22;97735.83;1745563;82;20195;-85
2022/06/22 00:05:37;;;;;;;;;;;;;;;9.29;91.57;97735.02;1742038;82;20525;-82
2022/06/22 00:08:06;;;;;;;;;;;;;;;9.28;92.15;97741.52;1728256;82;21143;-86
2022/06/22 00:10:37;;;;;;;;;;;;;;;9.24;93.15;97731.81;1745707;82;20196;-82
2022/06/22 00:13:04;;;;;;;;;;;;;;;9.26;91.10;97732.88;1745597;80;20436;-86
2022/06/22 00:15:38;;;;;;;;;;;;;;;9.20;90.35;97735.34;1745910;82;20178;-85
2022/06/22 00:18:19;;;;;;;;;;;;;;;9.18;93.36;97742.92;1728154;82;20211;-82
2022/06/22 00:20:50;;;;;;;;;;;;;;;9.14;95.66;97741.30;1704703;83;22055;-82
2022/06/22 00:23:20;;;;;;;;;;;;;;;9.16;94.46;97743.75;1746212;80;20160;-85
2022/06/22 00:25:46;;;;;;;;;;;;;;;9.15;94.07;97742.94;1744734;82;20478;-82
2022/06/22 00:28:31;;;;;;;;;;;;;;;9.14;94.61;97745.35;1737686;82;20185;-85
2022/06/22 00:31:04;;;;;;;;;;;;;;;9.17;94.63;97752.13;1745687;82;20206;-81
2022/06/22 00:33:29;;;;;;;;;;;;;;;9.17;92.81;97751.58;1729924;82;20984;-85
2022/06/22 00:35:58;;;;;;;;;;;;;;;9.19;92.22;97755.35;1745831;82;20203;-82
2022/06/22 00:38:31;;;;;;;;;;;;;;;9.18;92.99;97752.38;1735421;81;20161;-85
2022/06/22 00:41:06;;;;;;;;;;;;;;;9.10;91.18;97758.36;1745845;82;20187;-84
2022/06/22 00:43:32;;;;;;;;;;;;;;;9.02;93.64;97761.90;1754526;81;20187;-85
2022/06/22 00:45:58;;;;;;;;;;;;;;;9.04;91.63;97765.67;1744615;82;21144;-82
2022/06/22 00:48:32;;;;;;;;;;;;;;;9.05;93.58;97773.50;1712015;82;20195;-82
2022/06/22 00:51:06;;;;;;;;;;;;;;;9.06;92.29;97762.17;1745185;82;20204;-81
2022/06/22 00:53:54;;;;;;;;;;;;;;;9.01;94.16;97774.34;1724366;82;20321;-86
2022/06/22 00:56:38;;;;;;;;;;;;;;;8.96;94.86;97778.39;1745703;82;20171;-81
2022/06/22 00:59:35;;;;;;;;;;;;;;;8.94;94.73;97781.38;1745912;82;20618;-85
2022/06/22 01:02:10;;;;;;;;;;;;;;;8.93;95.65;97780.31;1745557;80;20200;-85
2022/06/22 01:04:49;;;;;;;;;;;;;;;8.92;95.47;97783.55;1745313;82;20197;-82
2022/06/22 01:07:30;;;;;;;;;;;;;;;8.86;95.46;97783.84;1728895;82;20177;-85
2022/06/22 01:10:02;;;;;;;;;;;;;;;8.82;92.48;97782.78;1743676;82;20310;-85
2022/06/22 01:12:47;;;;;;;;;;;;;;;8.79;94.34;97788.71;1744615;81;20657;-82
2022/06/22 01:15:30;;;;;;;;;;;;;;;8.79;95.09;97791.41;1736207;82;20163;-84
2022/06/22 01:18:18;;;;;;;;;;;;;;;8.77;96.22;97782.23;1728710;82;20776;-82
2022/06/22 01:20:47;;;;;;;;;;;;;;;8.79;95.52;97783.30;1716274;83;20621;-86
2022/06/22 01:23:25;;;;;;;;;;;;;;;8.78;95.26;97783.04;1734759;81;20219;-85
2022/06/22 01:26:13;;;;;;;;;;;;;;;8.74;95.19;97782.25;1720731;83;21112;-85
2022/06/22 01:28:39;;;;;;;;;;;;;;;8.71;95.08;97776.56;1740819;82;20325;-85
2022/06/22 01:31:08;;;;;;;;;;;;;;;8.68;96.30;97782.52;1741983;82;20220;-85
2022/06/22 01:33:35;;;;;;;;;;;;;;;8.67;94.93;97786.31;1732919;82;20211;-85
2022/06/22 01:36:04;;;;;;;;;;;;;;;8.66;93.18;97782.80;1745901;82;20218;-82
2022/06/22 01:38:30;;;;;;;;;;;;;;;8.65;95.17;97779.03;1745418;82;21237;-81
2022/06/22 01:41:09;;;;;;;;;;;;;;;8.63;95.03;97770.36;1745273;82;20242;-85
2022/06/22 01:43:44;;;;;;;;;;;;;;;8.62;94.09;97776.85;1733203;82;20177;-85
2022/06/22 01:46:22;;;;;;;;;;;;;;;8.59;94.38;97771.46;1745810;82;20141;-82
2022/06/22 01:48:51;;;;;;;;;;;;;;;8.59;92.03;97773.36;1745652;82;20167;-85
2022/06/22 01:51:29;;;;;;;;;;;;;;;8.53;93.88;97763.63;1745545;82;21209;-82
2022/06/22 01:54:14;;;;;;;;;;;;;;;8.50;94.83;97762.84;1729955;82;20196;-85
2022/06/22 01:56:59;;;;;;;;;;;;;;;8.46;94.43;97772.04;1737888;82;20215;-82
2022/06/22 01:59:40;;;;;;;;;;;;;;;8.40;92.23;97781.22;1743069;82;20195;-82
2022/06/22 02:02:14;;;;;;;;;;;;;;;8.36;93.17;97788.22;1702116;82;20564;-83
2022/06/22 02:04:46;;;;;;;;;;;;;;;8.39;96.10;97794.45;1696535;82;21187;-81
2022/06/22 02:10:03;;;;;;;;;;;;;;;8.29;95.95;97794.39;1745842;82;20235;-81
2022/06/22 02:12:33;;;;;;;;;;;;;;;8.20;95.98;97790.08;1745483;81;20234;-82
2022/06/22 02:15:14;;;;;;;;;;;;;;;8.18;95.25;97789.54;1759875;81;20198;-81
2022/06/22 02:17:40;;;;;;;;;;;;;;;8.17;95.05;97791.43;1730336;82;22022;-84
2022/06/22 02:20:27;;;;;;;;;;;;;;;8.13;95.04;97786.86;1745893;82;20413;-85
2022/06/22 02:22:56;;;;;;;;;;;;;;;8.08;96.59;97784.95;1745324;80;20183;-85
2022/06/22 02:25:22;;;;;;;;;;;;;;;8.09;96.85;97786.57;1745831;82;20211;-81
2022/06/22 02:27:48;;;;;;;;;;;;;;;8.06;97.32;97795.21;1740707;81;20195;-82
2022/06/22 02:30:14;;;;;;;;;;;;;;;8.05;96.94;97794.95;1720676;83;20681;-82
2022/06/22 02:32:41;;;;;;;;;;;;;;;8.07;96.22;97790.63;1715283;82;20204;-81
2022/06/22 02:35:09;;;;;;;;;;;;;;;8.04;94.84;97797.38;1745868;82;20167;-86
2022/06/22 02:37:37;;;;;;;;;;;;;;;8.02;94.91;97810.30;1726015;81;20188;-82
2022/06/22 02:40:05;;;;;;;;;;;;;;;7.98;94.11;97809.23;1690218;84;20181;-85
2022/06/22 02:45:17;;;;;;;;;;;;;;;7.96;93.01;97818.14;1690195;83;20255;-85
2022/06/22 02:47:45;;;;;;;;;;;;;;;7.98;94.07;97818.67;1731524;80;20210;-85
2022/06/22 02:50:26;;;;;;;;;;;;;;;8.00;93.92;97825.95;1745870;82;20198;-81
2022/06/22 02:53:04;;;;;;;;;;;;;;;8.04;95.90;97828.95;1738546;81;20160;-85
2022/06/22 02:55:34;;;;;;;;;;;;;;;8.05;95.62;97830.57;1745815;82;21163;-85
2022/06/22 02:58:02;;;;;;;;;;;;;;;7.91;97.14;97843.21;1745327;81;20173;-86
2022/06/22 03:00:33;;;;;;;;;;;;;;;7.90;96.19;97834.84;1745573;82;20188;-81
2022/06/22 03:03:05;;;;;;;;;;;;;;;7.92;95.87;97844.02;1745479;82;20214;-82
2022/06/22 03:05:31;;;;;;;;;;;;;;;7.90;95.95;97845.64;1745208;81;20223;-82
2022/06/22 03:07:58;;;;;;;;;;;;;;;7.91;95.17;97849.15;1706160;82;21076;-81
2022/06/22 03:10:33;;;;;;;;;;;;;;;7.90;95.27;97852.38;1720644;83;20191;-82
2022/06/22 03:12:59;;;;;;;;;;;;;;;7.95;95.94;97865.09;1732956;82;20189;-85
2022/06/22 03:15:27;;;;;;;;;;;;;;;7.97;96.45;97867.52;1745833;82;20742;-82
2022/06/22 03:17:53;;;;;;;;;;;;;;;7.96;95.49;97861.86;1727936;82;20172;-81
2022/06/22 03:20:21;;;;;;;;;;;;;;;7.93;94.78;97865.33;1758875;81;21570;-85
2022/06/22 03:22:52;;;;;;;;;;;;;;;7.92;96.20;97848.88;1748993;81;20464;-85
2022/06/22 03:25:24;;;;;;;;;;;;;;;8.03;95.28;97844.84;1745977;82;20141;-85
2022/06/22 03:27:52;;;;;;;;;;;;;;;8.11;94.84;97841.08;1721507;82;20153;-82
2022/06/22 03:30:20;;;;;;;;;;;;;;;8.25;92.47;97841.92;1734395;82;20233;-81
2022/06/22 03:32:55;;;;;;;;;;;;;;;8.37;92.23;97849.23;1732266;81;21841;-85
2022/06/22 03:35:38;;;;;;;;;;;;;;;8.42;94.26;97851.41;1739932;82;20309;-82
2022/06/22 03:38:13;;;;;;;;;;;;;;;8.59;93.69;97843.58;1734456;82;20155;-81
2022/06/22 03:40:53;;;;;;;;;;;;;;;8.73;94.54;97834.66;1733420;82;20513;-81
2022/06/22 03:43:23;;;;;;;;;;;;;;;8.84;93.87;97834.09;1744304;81;20565;-81
2022/06/22 03:45:51;;;;;;;;;;;;;;;8.99;93.17;97841.38;1738761;81;21019;-81
2022/06/22 03:48:24;;;;;;;;;;;;;;;9.08;93.07;97841.09;1736870;82;20210;-82
2022/06/22 03:51:08;;;;;;;;;;;;;;;9.19;92.72;97835.10;1735178;82;20203;-81
2022/06/22 03:53:49;;;;;;;;;;;;;;;9.28;92.54;97826.14;1702176;82;20191;-81
2022/06/22 03:56:16;;;;;;;;;;;;;;;9.37;91.83;97824.22;1743153;82;20253;-81
2022/06/22 03:58:42;;;;;;;;;;;;;;;9.52;91.69;97829.03;1740546;80;21087;-81
2022/06/22 04:01:08;;;;;;;;;;;;;;;9.55;91.43;97825.77;1735147;82;20163;-85
2022/06/22 04:03:34;;;;;;;;;;;;;;;9.68;91.28;97833.03;1741894;81;20301;-85
2022/06/22 04:06:00;;;;;;;;;;;;;;;9.74;90.79;97830.55;1735656;82;20273;-86
2022/06/22 04:08:28;;;;;;;;;;;;;;;9.86;90.52;97833.20;1741462;80;20482;-85
2022/06/22 04:11:04;;;;;;;;;;;;;;;10.01;90.12;97845.84;1733171;82;21038;-85
2022/06/22 04:13:36;;;;;;;;;;;;;;;10.10;90.07;97840.64;1716407;81;20483;-85
2022/06/22 04:16:10;;;;;;;;;;;;;;;10.20;90.00;97837.86;1733487;81;20327;-85
2022/06/22 04:18:43;;;;;;;;;;;;;;;10.27;89.93;97834.33;1718950;81;20242;-86
2022/06/22 04:21:11;;;;;;;;;;;;;;;10.43;89.33;97830.41;1731146;81;20163;-86
2022/06/22 04:23:56;;;;;;;;;;;;;;;10.57;88.91;97836.52;1743223;81;21097;-85
2022/06/22 04:26:34;;;;;;;;;;;;;;;10.75;88.78;97830.39;1743106;81;20561;-81
2022/06/22 04:29:02;;;;;;;;;;;;;;;10.97;88.44;97833.45;1743246;81;20235;-82
2022/06/22 04:31:31;;;;;;;;;;;;;;;11.14;87.27;97847.92;1743661;82;20160;-81
2022/06/22 04:33:59;;;;;;;;;;;;;;;11.19;87.31;97855.17;1706776;83;20487;-81
2022/06/22 04:36:29;;;;;;;;;;;;;;;11.29;87.60;97857.80;1724209;82;21110;-81
2022/06/22 04:38:57;;;;;;;;;;;;;;;11.45;87.16;97858.41;1743153;81;20171;-81
2022/06/22 04:41:38;;;;;;;;;;;;;;;11.59;86.77;97864.77;1732554;81;20216;-82
2022/06/22 04:44:10;;;;;;;;;;;;;;;11.74;86.34;97846.95;1742275;82;20130;-82
2022/06/22 04:46:39;;;;;;;;;;;;;;;11.99;86.74;97840.41;1736435;82;20682;-81
2022/06/22 04:49:24;;;;;;;;;;;;;;;12.26;86.88;97840.29;1709983;82;21748;-81
2022/06/22 04:51:56;;;;;;;;;;;;;;;12.53;86.53;97845.83;1710398;82;20169;-82
2022/06/22 04:54:25;;;;;;;;;;;;;;;12.79;85.54;97854.38;1696961;81;20225;-82
2022/06/22 04:56:52;;;;;;;;;;;;;;;12.97;85.37;97850.80;1709204;81;20233;-81
2022/06/22 04:59:17;;;;;;;;;;;;;;;13.15;84.51;97850.47;1743733;81;20277;-81
2022/06/22 05:01:46;;;;;;;;;;;;;;;13.18;83.20;97856.69;1742806;81;21128;-81
2022/06/22 05:04:23;;;;;;;;;;;;;;;13.16;83.21;97862.99;1730852;82;20130;-86
2022/06/22 05:06:55;;;;;;;;;;;;;;;13.26;83.10;97868.27;1736001;82;20342;-82
2022/06/22 05:09:36;;;;;;;;;;;;;;;13.49;82.10;97873.27;1742201;80;20168;-82
2022/06/22 05:12:03;;;;;;;;;;;;;;;13.56;80.81;97874.23;1738965;81;20137;-86
2022/06/22 05:14:30;;;;;;;;;;;;;;;13.55;80.38;97868.53;1718308;82;21074;-86
2022/06/22 05:16:59;;;;;;;;;;;;;;;13.62;80.21;97870.30;1744058;80;20431;-82
2022/06/22 05:19:28;;;;;;;;;;;;;;;13.73;80.26;97868.17;1743701;80;20167;-82
2022/06/22 05:21:57;;;;;;;;;;;;;;;13.79;79.83;97869.14;1737206;81;20237;-82
2022/06/22 05:24:25;;;;;;;;;;;;;;;13.88;80.00;97868.42;1734641;81;20177;-81
2022/06/22 05:26:51;;;;;;;;;;;;;;;14.08;79.58;97872.06;1733341;81;21368;-82
2022/06/22 05:29:20;;;;;;;;;;;;;;;14.36;79.49;97879.08;1740701;80;20707;-82
2022/06/22 05:31:48;;;;;;;;;;;;;;;14.46;78.73;97882.16;1736950;80;20177;-87
2022/06/22 05:34:17;;;;;;;;;;;;;;;14.50;78.55;97876.88;1743214;82;20219;-87
2022/06/22 05:36:45;;;;;;;;;;;;;;;14.52;78.39;97880.90;1674755;84;20589;-86
2022/06/22 05:39:11;;;;;;;;;;;;;;;14.71;78.94;97882.11;1653484;85;21127;-86
2022/06/22 05:41:39;;;;;;;;;;;;;;;15.00;78.38;97880.85;1669453;84;20396;-87
2022/06/22 05:44:07;;;;;;;;;;;;;;;15.07;77.00;97881.22;1673365;84;20571;-86
2022/06/22 05:46:33;;;;;;;;;;;;;;;15.08;76.82;97879.55;1673167;84;20162;-85
2022/06/22 05:48:59;;;;;;;;;;;;;;;15.17;76.56;97883.69;1660805;84;20632;-86
2022/06/22 05:51:49;;;;;;;;;;;;;;;15.26;76.66;97879.64;1659369;84;21906;-87
2022/06/22 05:54:22;;;;;;;;;;;;;;;15.44;78.36;97883.50;1668664;85;20247;-87
2022/06/22 05:57:00;;;;;;;;;;;;;;;15.78;76.61;97887.52;1626294;84;20183;-86
2022/06/22 05:59:30;;;;;;;;;;;;;;;15.94;77.51;97884.59;1670802;84;20184;-87
2022/06/22 06:02:17;;;;;;;;;;;;;;;16.30;77.34;97864.39;1664792;84;20147;-87
2022/06/22 06:04:59;;;;;;;;;;;;;;;16.55;74.73;97865.53;1680859;85;21908;-86
2022/06/22 06:07:47;;;;;;;;;;;;;;;16.74;75.03;97860.55;1669463;85;20220;-87
2022/06/22 06:10:31;;;;;;;;;;;;;;;16.86;74.50;97862.64;1680152;85;20222;-87
2022/06/22 06:13:04;;;;;;;;;;;;;;;17.05;74.86;97863.66;1677844;84;20184;-86
2022/06/22 06:15:33;;;;;;;;;;;;;;;17.30;74.41;97855.13;1678992;85;20441;-82
2022/06/22 06:17:58;;;;;;;;;;;;;;;17.53;73.43;97853.77;1669310;84;21191;-82
2022/06/22 06:20:28;;;;;;;;;;;;;;;17.69;69.21;97849.34;1676306;85;20192;-82
2022/06/22 06:22:57;;;;;;;;;;;;;;;17.92;66.45;97851.23;1677294;84;20198;-82
2022/06/22 06:28:14;;;;;;;;;;;;;;;18.38;70.82;97852.81;1675360;84;20466;-82
2022/06/22 06:30:45;;;;;;;;;;;;;;;18.44;61.91;97854.20;1680366;85;21106;-82
2022/06/22 06:33:14;;;;;;;;;;;;;;;18.59;65.90;97856.34;1680177;84;20244;-82
2022/06/22 06:35:49;;;;;;;;;;;;;;;18.70;67.67;97845.20;1674155;84;20187;-82
2022/06/22 06:38:37;;;;;;;;;;;;;;;18.73;61.38;97850.03;1671702;85;20442;-82
2022/06/22 06:41:09;;;;;;;;;;;;;;;19.02;63.47;97850.47;1680406;84;20533;-82
2022/06/22 06:43:48;;;;;;;;;;;;;;;19.19;63.01;97844.56;1674620;85;21864;-82
2022/06/22 06:46:40;;;;;;;;;;;;;;;19.25;59.54;97844.59;1664859;85;20148;-82
2022/06/22 06:49:18;;;;;;;;;;;;;;;19.39;61.51;97843.67;1672275;85;20223;-82
2022/06/22 06:51:50;;;;;;;;;;;;;;;19.50;58.53;97846.80;1667581;84;20196;-82
2022/06/22 06:54:28;;;;;;;;;;;;;;;19.31;54.43;97841.28;1679866;85;20150;-82
2022/06/22 06:56:59;;;;;;;;;;;;;;;19.44;57.43;97842.89;1658905;85;21249;-82
2022/06/22 06:59:27;;;;;;;;;;;;;;;19.59;59.34;97837.33;1678543;85;20513;-82
2022/06/22 07:01:53;;;;;;;;;;;;;;;19.84;60.57;97835.96;1691870;83;20333;-82
2022/06/22 07:04:28;;;;;;;;;;;;;;;19.99;60.81;97839.36;1666258;85;20221;-82
2022/06/22 07:06:57;;;;;;;;;;;;;;;19.99;54.30;97834.66;1685232;83;20188;-82
2022/06/22 07:09:28;;;;;;;;;;;;;;;20.02;56.90;97837.89;1679953;83;21173;-82
2022/06/22 07:12:14;;;;;;;;;;;;;;;20.10;59.10;97835.02;1681522;84;20450;-82
2022/06/22 07:14:41;;;;;;;;;;;;;;;20.20;58.50;97833.73;1674300;84;20217;-82
2022/06/22 07:17:12;;;;;;;;;;;;;;;20.12;57.52;97834.66;1678799;84;20149;-82
2022/06/22 07:19:39;;;;;;;;;;;;;;;20.08;57.08;97828.23;1681182;84;20138;-82
2022/06/22 07:22:27;;;;;;;;;;;;;;;20.17;55.51;97831.69;1670558;85;21169;-82
2022/06/22 07:24:57;;;;;;;;;;;;;;;20.55;56.60;97812.78;1676366;84;20166;-82
2022/06/22 07:27:29;;;;;;;;;;;;;;;20.72;54.15;97810.31;1678433;84;20282;-82
2022/06/22 07:30:04;;;;;;;;;;;;;;;20.90;55.02;97803.91;1680270;84;20253;-83
2022/06/22 07:32:42;;;;;;;;;;;;;;;20.84;51.31;97806.11;1679177;84;20152;-82
2022/06/22 07:35:11;;;;;;;;;;;;;;;21.21;53.17;97805.92;1679053;85;22450;-82
2022/06/22 07:37:40;;;;;;;;;;;;;;;21.21;44.52;97804.54;1673171;85;20509;-82
2022/06/22 07:40:10;;;;;;;;;;;;;;;21.25;42.88;97804.04;1685372;83;20187;-82
2022/06/22 07:42:35;;;;;;;;;;;;;;;21.34;44.16;97811.58;1665032;85;20224;-82
2022/06/22 07:45:01;;;;;;;;;;;;;;;21.55;45.56;97811.91;1678709;85;20247;-82
2022/06/22 07:47:42;;;;;;;;;;;;;;;21.80;40.32;97803.66;1666874;85;21075;-82
2022/06/22 07:50:20;;;;;;;;;;;;;;;21.89;39.20;97803.46;1651705;85;20146;-83
2022/06/22 07:52:54;;;;;;;;;;;;;;;22.00;37.86;97807.25;1677537;84;20151;-82
2022/06/22 07:55:25;;;;;;;;;;;;;;;22.18;40.67;97811.81;1680119;85;20188;-82
2022/06/22 07:58:12;;;;;;;;;;;;;;;22.44;43.69;97807.84;1674179;85;20149;-82
2022/06/22 08:00:39;;;;;;;;;;;;;;;23.13;43.54;97809.41;1678029;85;21143;-82
2022/06/22 08:03:11;;;;;;;;;;;;;;;24.07;41.89;97810.58;1678283;85;20210;-83
2022/06/22 08:05:38;;;;;;;;;;;;;;;24.70;41.26;97807.09;1675685;85;20212;-83
2022/06/22 08:08:11;;;;;;;;;;;;;;;24.86;36.02;97806.06;1672754;84;20175;-83
2022/06/22 08:10:42;;;;;;;;;;;;;;;24.93;34.89;97806.94;1673951;85;20165;-83
2022/06/22 08:13:24;;;;;;;;;;;;;;;25.68;37.56;97806.30;1679617;85;21074;-83
2022/06/22 08:15:52;;;;;;;;;;;;;;;26.22;38.07;97810.84;1673957;85;20187;-83
2022/06/22 08:18:18;;;;;;;;;;;;;;;26.64;36.13;97804.13;1676001;84;20255;-83
2022/06/22 08:20:45;;;;;;;;;;;;;;;26.97;37.26;97799.48;1675492;85;21213;-83
2022/06/22 08:23:14;;;;;;;;;;;;;;;26.46;30.82;97800.48;1680994;84;20454;-83
2022/06/22 08:25:44;;;;;;;;;;;;;;;26.91;35.87;97812.16;1654757;85;21071;-83
2022/06/22 08:28:09;;;;;;;;;;;;;;;27.16;32.55;97804.70;1679696;84;20174;-83
2022/06/22 08:30:35;;;;;;;;;;;;;;;27.54;35.22;97802.38;1678695;84;20267;-83
2022/06/22 08:33:05;;;;;;;;;;;;;;;27.92;33.35;97809.73;1678585;85;20176;-83
2022/06/22 08:35:37;;;;;;;;;;;;;;;27.97;30.88;97805.96;1680545;84;20195;-83
2022/06/22 08:38:07;;;;;;;;;;;;;;;27.29;29.65;97802.36;1675058;85;21332;-83
2022/06/22 08:40:58;;;;;;;;;;;;;;;27.81;28.13;97795.23;1664655;85;20207;-83
2022/06/22 08:43:37;;;;;;;;;;;;;;;27.64;28.67;97802.97;1679639;84;20575;-83
2022/06/22 08:46:33;;;;;;;;;;;;;;;27.94;27.84;97807.34;1673610;85;20247;-83
2022/06/22 08:49:11;;;;;;;;;;;;;;;28.43;27.46;97813.44;1602190;88;20188;-83
2022/06/22 08:52:06;;;;;;;;;;;;;;;27.86;26.58;97810.76;1631540;86;21103;-83
2022/06/22 08:54:55;;;;;;;;;;;;;;;28.60;28.87;97807.61;1688653;81;20160;-83
2022/06/22 08:57:25;;;;;;;;;;;;;;;29.31;28.29;97807.84;1734676;81;20222;-83
2022/06/22 08:59:54;;;;;;;;;;;;;;;29.36;26.33;97802.63;1728686;81;20156;-83
2022/06/22 09:02:40;;;;;;;;;;;;;;;29.77;25.46;97794.36;1740784;81;20198;-83
2022/06/22 09:05:15;;;;;;;;;;;;;;;29.43;24.33;97805.98;1733502;81;21044;-83
2022/06/22 09:07:52;;;;;;;;;;;;;;;30.22;27.30;97806.13;1740810;80;20467;-83
2022/06/22 09:10:46;;;;;;;;;;;;;;;29.07;24.24;97822.16;1740155;81;20474;-83
2022/06/22 09:13:24;;;;;;;;;;;;;;;29.86;24.62;97819.02;1733623;81;20176;-83
2022/06/22 09:16:24;;;;;;;;;;;;;;;29.83;24.45;97821.85;1731574;80;20521;-83
2022/06/22 09:19:22;;;;;;;;;;;;;;;29.94;25.24;97816.35;1738785;81;21034;-84
2022/06/22 09:22:16;;;;;;;;;;;;;;;28.90;24.99;97819.06;1732985;81;20177;-83
2022/06/22 09:25:11;;;;;;;;;;;;;;;29.08;26.69;97811.99;1743264;80;20207;-84
2022/06/22 09:27:46;;;;;;;;;;;;;;;29.09;26.32;97812.78;1735367;80;20428;-84
2022/06/22 09:30:25;;;;;;;;;;;;;;;30.49;25.23;97802.03;1741923;80;20187;-84
2022/06/22 09:33:09;;;;;;;;;;;;;;;30.62;25.45;97803.08;1741959;81;21016;-84
2022/06/22 09:35:58;;;;;;;;;;;;;;;29.96;24.08;97807.55;1742622;82;20147;-84
2022/06/22 09:38:52;;;;;;;;;;;;;;;30.71;23.52;97809.59;1730988;80;20420;-84
2022/06/22 09:41:48;;;;;;;;;;;;;;;29.70;23.66;97811.17;1714875;82;20274;-84
2022/06/22 09:44:46;;;;;;;;;;;;;;;30.36;24.84;97812.17;1739747;81;20198;-84
2022/06/22 09:47:25;;;;;;;;;;;;;;;30.98;23.74;97809.03;1722132;81;21152;-89
2022/06/22 09:50:10;;;;;;;;;;;;;;;32.49;22.87;97797.78;1738733;80;20194;-91
2022/06/22 09:52:54;;;;;;;;;;;;;;;32.29;22.12;97799.73;1732192;81;20562;-91
2022/06/22 09:58:30;;;;;;;;;;;;;;;31.57;22.48;97794.59;1738345;80;20210;-90
2022/06/22 10:01:02;;;;;;;;;;;;;;;31.15;22.22;97796.80;1704995;81;21727;-92
2022/06/22 10:03:38;;;;;;;;;;;;;;;30.68;23.63;97804.82;1736238;81;20150;-84
2022/06/22 10:06:11;;;;;;;;;;;;;;;30.70;23.48;97808.02;1741411;81;20194;-84
2022/06/22 10:08:53;;;;;;;;;;;;;;;30.00;23.99;97807.73;1732156;80;20275;-83
2022/06/22 10:11:34;;;;;;;;;;;;;;;29.11;24.03;97809.77;1735961;80;20161;-84
2022/06/22 10:14:18;;;;;;;;;;;;;;;30.96;23.96;97798.87;1742682;81;21804;-84
2022/06/22 10:17:06;;;;;;;;;;;;;;;30.63;23.36;97794.88;1741151;80;20212;-84
2022/06/22 10:19:47;;;;;;;;;;;;;;;31.16;23.19;97796.19;1739776;82;20438;-84
2022/06/22 10:22:20;;;;;;;;;;;;;;;32.33;22.95;97787.89;1718113;80;20167;-84
2022/06/22 10:25:04;;;;;;;;;;;;;;;32.94;22.07;97779.65;1739922;80;20495;-84
2022/06/22 10:27:54;;;;;;;;;;;;;;;32.70;22.18;97789.53;1742646;81;21113;-84
2022/06/22 10:30:29;;;;;;;;;;;;;;;31.77;21.46;97785.48;1742135;81;20702;-84
2022/06/22 10:33:07;;;;;;;;;;;;;;;32.83;22.13;97791.08;1742342;81;20287;-84
2022/06/22 10:35:54;;;;;;;;;;;;;;;32.92;22.05;97791.92;1741184;81;20137;-84
2022/06/22 10:38:39;;;;;;;;;;;;;;;30.54;24.00;97792.59;1733596;81;20438;-84
2022/06/22 10:47:10;;;;;;;;;;;;;;;30.21;23.94;97784.98;1740680;81;20237;-84
2022/06/22 10:49:56;;;;;;;;;;;;;;;30.73;22.67;97786.98;1719037;80;20491;-84
2022/06/22 10:52:29;;;;;;;;;;;;;;;30.57;24.21;97783.36;1721756;81;20181;-84
2022/06/22 10:55:22;;;;;;;;;;;;;;;31.51;22.32;97780.88;1736114;81;21236;-84
2022/06/22 10:58:04;;;;;;;;;;;;;;;31.71;21.73;97779.57;1737556;81;20219;-90
2022/06/22 11:00:42;;;;;;;;;;;;;;;33.66;21.50;97772.55;1736339;81;20217;-90
2022/06/22 11:03:34;;;;;;;;;;;;;;;33.60;20.55;97770.90;1739137;81;20208;-90
2022/06/22 11:06:26;;;;;;;;;;;;;;;34.66;21.87;97776.92;1731310;81;20252;-91
2022/06/22 11:09:01;;;;;;;;;;;;;;;35.43;19.71;97771.58;1740444;80;21877;-89
2022/06/22 11:11:36;;;;;;;;;;;;;;;35.97;19.80;97780.45;1726958;81;20351;-90
2022/06/22 11:14:12;;;;;;;;;;;;;;;35.61;18.97;97782.25;1742119;82;20205;-90
2022/06/22 11:16:41;;;;;;;;;;;;;;;35.04;19.08;97779.22;1742071;81;20176;-91
2022/06/22 11:19:19;;;;;;;;;;;;;;;34.16;19.58;97774.08;1743252;81;20210;-90
2022/06/22 11:22:15;;;;;;;;;;;;;;;34.35;19.74;97768.92;1737669;81;21136;-91
2022/06/22 11:25:07;;;;;;;;;;;;;;;35.64;19.73;97770.69;1736932;81;20189;-90
2022/06/22 11:30:57;;;;;;;;;;;;;;;35.68;18.85;97777.01;1740069;82;20476;-90
2022/06/22 11:33:39;;;;;;;;;;;;;;;33.57;19.40;97785.80;1736484;80;20228;-90
2022/06/22 11:36:41;;;;;;;;;;;;;;;34.48;18.97;97763.38;1744225;81;21887;-90
2022/06/22 11:39:33;;;;;;;;;;;;;;;33.87;19.73;97763.58;1743451;82;20181;-89
2022/06/22 11:42:06;;;;;;;;;;;;;;;35.73;19.51;97763.14;1724378;82;20175;-90
2022/06/22 11:48:06;;;;;;;;;;;;;;;36.40;17.42;97771.28;1743808;80;20244;-90
2022/06/22 11:50:41;;;;;;;;;;;;;;;33.80;19.19;97770.78;1728904;81;21883;-90
2022/06/22 11:53:34;;;;;;;;;;;;;;;33.41;19.39;97778.77;1743885;81;20141;-89
2022/06/22 11:56:12;;;;;;;;;;;;;;;34.93;18.96;97770.30;1743086;82;20685;-90
2022/06/22 11:58:51;;;;;;;;;;;;;;;34.00;18.85;97772.70;1727733;81;20195;-91
2022/06/22 12:01:26;;;;;;;;;;;;;;;35.03;19.33;97774.80;1742203;81;20709;-91
2022/06/22 12:03:57;;;;;;;;;;;;;;;35.27;19.26;97778.70;1738623;81;21050;-84
2022/06/22 12:06:53;;;;;;;;;;;;;;;34.91;18.17;97779.03;1728419;81;20208;-85
2022/06/22 12:09:31;;;;;;;;;;;;;;;35.68;17.91;97783.44;1738527;81;20213;-84
2022/06/22 12:12:06;;;;;;;;;;;;;;;34.68;18.49;97779.45;1740279;81;20150;-85
2022/06/22 12:15:08;;;;;;;;;;;;;;;34.51;19.27;97787.79;1741892;80;20159;-84
2022/06/22 12:17:54;;;;;;;;;;;;;;;33.69;19.69;97780.11;1743297;81;21143;-84
2022/06/22 12:20:42;;;;;;;;;;;;;;;34.40;18.74;97788.09;1743994;80;20184;-85
2022/06/22 12:23:20;;;;;;;;;;;;;;;34.53;19.05;97783.94;1742510;80;20167;-84
2022/06/22 12:25:50;;;;;;;;;;;;;;;35.01;18.40;97776.50;1740021;81;20300;-84
2022/06/22 12:28:35;;;;;;;;;;;;;;;35.03;17.99;97770.58;1744912;80;20267;-84
2022/06/22 12:31:10;;;;;;;;;;;;;;;35.09;18.89;97777.86;1734018;81;22721;-84
2022/06/22 12:33:43;;;;;;;;;;;;;;;35.67;18.74;97774.03;1734328;80;20208;-85
2022/06/22 12:36:15;;;;;;;;;;;;;;;35.12;19.30;97767.72;1732671;81;20162;-85
2022/06/22 12:38:44;;;;;;;;;;;;;;;34.83;19.92;97756.53;1737782;81;20218;-85
2022/06/22 12:41:21;;;;;;;;;;;;;;;34.34;19.39;97765.94;1728788;82;21174;-84
2022/06/22 12:43:54;;;;;;;;;;;;;;;34.64;18.73;97768.15;1706928;81;21295;-85
2022/06/22 12:46:35;;;;;;;;;;;;;;;33.87;18.91;97759.36;1737829;81;20543;-85
2022/06/22 12:49:37;;;;;;;;;;;;;;;33.46;18.38;97764.83;1737672;81;20199;-85
2022/06/22 12:52:09;;;;;;;;;;;;;;;34.72;18.66;97756.23;1730257;81;20502;-85
2022/06/22 12:54:39;;;;;;;;;;;;;;;34.69;18.48;97757.11;1735586;81;20179;-85
2022/06/22 12:57:10;;;;;;;;;;;;;;;34.67;18.28;97757.40;1745557;81;21847;-85
2022/06/22 12:59:43;;;;;;;;;;;;;;;34.20;19.03;97754.48;1750862;81;20273;-85
2022/06/22 13:02:17;;;;;;;;;;;;;;;33.02;19.75;97767.83;1743343;80;20194;-84
2022/06/22 13:04:45;;;;;;;;;;;;;;;33.90;19.11;97751.48;1742493;81;20170;-85
2022/06/22 13:07:13;;;;;;;;;;;;;;;34.28;19.17;97744.45;1748039;80;20263;-85
2022/06/22 13:09:39;;;;;;;;;;;;;;;34.57;19.33;97748.66;1737869;81;21164;-85
2022/06/22 13:12:14;;;;;;;;;;;;;;;35.01;18.94;97751.95;1738168;81;20190;-85
2022/06/22 13:14:44;;;;;;;;;;;;;;;36.12;17.84;97745.50;1745161;81;20232;-84
2022/06/22 13:17:29;;;;;;;;;;;;;;;33.99;18.82;97741.62;1740203;80;20479;-85
2022/06/22 13:20:08;;;;;;;;;;;;;;;34.83;19.39;97743.25;1740865;81;20211;-85
2022/06/22 13:22:52;;;;;;;;;;;;;;;35.40;18.53;97744.33;1742925;81;21860;-85
2022/06/22 13:25:40;;;;;;;;;;;;;;;35.02;18.77;97740.86;1757285;81;20165;-85
2022/06/22 13:28:21;;;;;;;;;;;;;;;34.59;19.50;97740.56;1742646;81;20478;-85
2022/06/22 13:30:58;;;;;;;;;;;;;;;35.19;19.65;97730.27;1738190;81;20265;-85
2022/06/22 13:33:30;;;;;;;;;;;;;;;34.66;18.35;97738.95;1722527;81;20178;-85
2022/06/22 13:36:06;;;;;;;;;;;;;;;34.68;18.42;97735.84;1743351;81;21137;-84
2022/06/22 13:38:53;;;;;;;;;;;;;;;34.65;19.68;97728.94;1743518;81;20171;-85
2022/06/22 13:41:24;;;;;;;;;;;;;;;31.00;21.75;97746.45;1700750;81;20333;-85
2022/06/22 13:43:57;;;;;;;;;;;;;;;29.82;23.29;97742.84;1737298;80;20262;-84
2022/06/22 13:46:32;;;;;;;;;;;;;;;28.43;24.88;97741.00;1736649;82;21350;-85
2022/06/22 13:49:02;;;;;;;;;;;;;;;29.79;25.25;97738.11;1736806;82;21603;-84
2022/06/22 13:51:40;;;;;;;;;;;;;;;30.93;22.78;97738.77;1719759;81;20165;-84
2022/06/22 13:54:27;;;;;;;;;;;;;;;31.12;22.73;97743.09;1736894;81;20217;-84
2022/06/22 13:57:03;;;;;;;;;;;;;;;31.52;22.30;97738.27;1727851;81;20212;-84